TimeCDT,TemperatureF,Dew PointF,Humidity,Sea Level PressureIn,VisibilityMPH,Wind Direction,Wind SpeedMPH,Gust SpeedMPH,PrecipitationIn,Events,Conditions,WindDirDegrees,DateUTC
12:58 AM,75.4,73.6,94,30.04,10.0,Calm,Calm,-,N/A,,Mostly Cloudy,0,2013-08-24 05:58:00
1:58 AM,75.4,74.1,96,30.06,10.0,NNE,1.2,-,N/A,,Clear,20,2013-08-24 06:58:00
2:58 AM,74.1,73.2,97,30.04,10.0,North,3.5,-,N/A,,Clear,360,2013-08-24 07:58:00
3:58 AM,73.9,73.4,98,30.04,10.0,Calm,Calm,-,N/A,,Clear,0,2013-08-24 08:58:00
4:58 AM,73.4,73.0,99,30.06,10.0,NE,2.3,-,N/A,,Partly Cloudy,40,2013-08-24 09:58:00
5:58 AM,73.8,73.6,99,30.09,10.0,NE,3.5,-,N/A,,Mostly Cloudy,40,2013-08-24 10:58:00
6:58 AM,73.9,73.8,99,30.11,10.0,NNE,3.5,-,N/A,,Clear,20,2013-08-24 11:58:00
7:58 AM,76.1,74.1,94,30.13,10.0,NE,4.6,-,N/A,,Partly Cloudy,40,2013-08-24 12:58:00
8:58 AM,79.3,73.6,82,30.13,10.0,Variable,1.2,-,N/A,,Partly Cloudy,0,2013-08-24 13:58:00
9:58 AM,82.2,75.2,79,30.14,10.0,Variable,2.3,-,N/A,,Clear,0,2013-08-24 14:58:00
10:58 AM,84.4,74.7,72,30.14,10.0,Variable,2.3,-,N/A,,Clear,0,2013-08-24 15:58:00
11:58 AM,85.5,74.3,69,30.14,10.0,NE,4.6,-,N/A,,Scattered Clouds,50,2013-08-24 16:58:00
12:42 PM,86.0,75.2,70,30.12,10.0,ENE,12.7,-,N/A,Rain,Light Rain,60,2013-08-24 17:42:00
12:58 PM,82.4,76.1,81,30.13,8.0,NNE,5.8,-,0.01,Rain,Light Rain,20,2013-08-24 17:58:00
1:12 PM,84.2,75.2,74,30.12,10.0,NNE,5.8,-,N/A,,Partly Cloudy,30,2013-08-24 18:12:00
1:58 PM,86.9,75.0,68,30.12,10.0,NE,5.8,-,0.00,,Scattered Clouds,50,2013-08-24 18:58:00
2:58 PM,89.4,73.4,59,30.09,10.0,East,9.2,-,N/A,,Clear,80,2013-08-24 19:58:00
3:58 PM,88.7,73.0,60,30.09,10.0,East,6.9,-,N/A,,Clear,80,2013-08-24 20:58:00
4:58 PM,88.7,72.9,59,30.08,10.0,ENE,9.2,-,N/A,,Clear,70,2013-08-24 21:58:00
5:58 PM,86.0,72.7,64,30.09,10.0,East,8.1,-,N/A,,Clear,80,2013-08-24 22:58:00
6:58 PM,83.1,75.4,77,30.10,10.0,NE,5.8,-,N/A,,Clear,40,2013-08-24 23:58:00
7:58 PM,81.7,75.7,82,30.12,10.0,NE,4.6,-,N/A,,Partly Cloudy,50,2013-08-25 00:58:00
8:58 PM,80.2,75.9,87,30.14,10.0,ENE,5.8,-,N/A,,Clear,60,2013-08-25 01:58:00
9:58 PM,80.8,73.6,79,30.17,10.0,East,9.2,-,N/A,,Clear,80,2013-08-25 02:58:00
10:58 PM,79.2,72.3,79,30.19,10.0,East,13.8,-,N/A,,Mostly Cloudy,90,2013-08-25 03:58:00
11:23 PM,78.8,71.6,78,30.18,10.0,East,11.5,19.6,N/A,,Mostly Cloudy,90,2013-08-25 04:23:00
11:38 PM,78.8,71.6,78,30.19,10.0,East,10.4,-,N/A,,Overcast,90,2013-08-25 04:38:00
11:43 PM,78.8,71.6,78,30.19,10.0,East,11.5,-,N/A,,Mostly Cloudy,90,2013-08-25 04:43:00
11:58 PM,78.8,71.6,78,30.19,10.0,East,10.4,-,N/A,,Overcast,90,2013-08-25 04:58:00